sensor_id;sensor_type;location;lat;lon;timestamp;P1;durP1;ratioP1;P2;durP2;ratioP2
6388;SDS011;3227;42.654;23.360;2023-03-12T00:00:41;6.50;;;3.33;;
6388;SDS011;3227;42.654;23.360;2023-03-12T00:03:08;8.60;;;3.30;;
6388;SDS011;3227;42.654;23.360;2023-03-12T00:05:36;10.93;;;3.40;;
6388;SDS011;3227;42.654;23.360;2023-03-12T00:08:03;10.70;;;3.70;;
6388;SDS011;3227;42.654;23.360;2023-03-12T00:10:32;9.50;;;3.90;;
6388;SDS011;3227;42.654;23.360;2023-03-12T00:13:00;13.17;;;4.10;;
6388;SDS011;3227;42.654;23.360;2023-03-12T00:15:27;7.10;;;4.17;;
6388;SDS011;3227;42.654;23.360;2023-03-12T00:17:53;9.70;;;4.20;;
6388;SDS011;3227;42.654;23.360;2023-03-12T00:20:20;8.40;;;3.87;;
6388;SDS011;3227;42.654;23.360;2023-03-12T00:22:50;7.23;;;4.40;;
6388;SDS011;3227;42.654;23.360;2023-03-12T00:25:17;8.53;;;4.30;;
6388;SDS011;3227;42.654;23.360;2023-03-12T00:27:46;10.23;;;4.90;;
6388;SDS011;3227;42.654;23.360;2023-03-12T00:30:13;8.60;;;4.50;;
6388;SDS011;3227;42.654;23.360;2023-03-12T00:32:40;10.23;;;4.83;;
6388;SDS011;3227;42.654;23.360;2023-03-12T00:35:07;8.00;;;4.90;;
6388;SDS011;3227;42.654;23.360;2023-03-12T00:37:35;7.87;;;4.37;;
6388;SDS011;3227;42.654;23.360;2023-03-12T00:40:02;10.17;;;4.50;;
6388;SDS011;3227;42.654;23.360;2023-03-12T00:42:30;10.57;;;4.93;;
6388;SDS011;3227;42.654;23.360;2023-03-12T00:44:59;6.90;;;4.27;;
6388;SDS011;3227;42.654;23.360;2023-03-12T00:47:25;9.37;;;4.87;;
6388;SDS011;3227;42.654;23.360;2023-03-12T00:49:52;10.63;;;4.30;;
6388;SDS011;3227;42.654;23.360;2023-03-12T00:52:19;6.90;;;4.23;;
6388;SDS011;3227;42.654;23.360;2023-03-12T00:54:49;10.20;;;4.80;;
6388;SDS011;3227;42.654;23.360;2023-03-12T00:57:16;9.63;;;4.80;;
6388;SDS011;3227;42.654;23.360;2023-03-12T00:59:43;6.80;;;4.77;;
6388;SDS011;3227;42.654;23.360;2023-03-12T01:02:11;7.97;;;4.60;;
6388;SDS011;3227;42.654;23.360;2023-03-12T01:04:38;10.27;;;4.93;;
6388;SDS011;3227;42.654;23.360;2023-03-12T01:07:05;10.43;;;4.93;;
6388;SDS011;3227;42.654;23.360;2023-03-12T01:09:31;7.30;;;4.83;;
6388;SDS011;3227;42.654;23.360;2023-03-12T01:11:58;7.80;;;4.70;;
6388;SDS011;3227;42.654;23.360;2023-03-12T01:14:25;8.87;;;4.77;;
6388;SDS011;3227;42.654;23.360;2023-03-12T01:16:52;7.93;;;4.60;;
6388;SDS011;3227;42.654;23.360;2023-03-12T01:19:20;10.10;;;4.37;;
6388;SDS011;3227;42.654;23.360;2023-03-12T01:21:47;10.37;;;4.63;;
6388;SDS011;3227;42.654;23.360;2023-03-12T01:24:14;7.07;;;4.40;;
6388;SDS011;3227;42.654;23.360;2023-03-12T01:26:41;6.93;;;4.03;;
6388;SDS011;3227;42.654;23.360;2023-03-12T01:29:08;6.30;;;4.47;;
6388;SDS011;3227;42.654;23.360;2023-03-12T01:31:38;10.43;;;4.20;;
6388;SDS011;3227;42.654;23.360;2023-03-12T01:34:05;6.97;;;4.27;;
6388;SDS011;3227;42.654;23.360;2023-03-12T01:36:33;6.37;;;4.23;;
6388;SDS011;3227;42.654;23.360;2023-03-12T01:39:00;6.70;;;4.43;;
6388;SDS011;3227;42.654;23.360;2023-03-12T01:41:27;7.33;;;4.47;;
6388;SDS011;3227;42.654;23.360;2023-03-12T01:43:57;8.37;;;4.23;;
6388;SDS011;3227;42.654;23.360;2023-03-12T01:46:27;9.60;;;4.80;;
6388;SDS011;3227;42.654;23.360;2023-03-12T01:48:56;8.93;;;4.30;;
6388;SDS011;3227;42.654;23.360;2023-03-12T01:51:29;9.63;;;4.67;;
6388;SDS011;3227;42.654;23.360;2023-03-12T01:54:04;11.03;;;4.83;;
6388;SDS011;3227;42.654;23.360;2023-03-12T01:56:34;7.30;;;4.37;;
6388;SDS011;3227;42.654;23.360;2023-03-12T01:59:04;7.67;;;4.90;;
6388;SDS011;3227;42.654;23.360;2023-03-12T02:01:33;7.77;;;4.73;;
6388;SDS011;3227;42.654;23.360;2023-03-12T02:04:00;9.97;;;5.07;;
6388;SDS011;3227;42.654;23.360;2023-03-12T02:06:29;8.90;;;4.53;;
6388;SDS011;3227;42.654;23.360;2023-03-12T02:09:03;8.53;;;4.70;;
6388;SDS011;3227;42.654;23.360;2023-03-12T02:11:32;9.80;;;4.40;;
6388;SDS011;3227;42.654;23.360;2023-03-12T02:13:59;7.33;;;4.30;;
6388;SDS011;3227;42.654;23.360;2023-03-12T02:16:26;7.27;;;4.30;;
6388;SDS011;3227;42.654;23.360;2023-03-12T02:18:53;6.47;;;4.27;;
6388;SDS011;3227;42.654;23.360;2023-03-12T02:21:22;8.33;;;4.50;;
6388;SDS011;3227;42.654;23.360;2023-03-12T02:23:54;9.10;;;4.27;;
6388;SDS011;3227;42.654;23.360;2023-03-12T02:26:28;11.27;;;3.83;;
6388;SDS011;3227;42.654;23.360;2023-03-12T02:28:57;6.00;;;4.30;;
6388;SDS011;3227;42.654;23.360;2023-03-12T02:31:26;8.70;;;4.40;;
6388;SDS011;3227;42.654;23.360;2023-03-12T02:33:57;8.63;;;4.20;;
6388;SDS011;3227;42.654;23.360;2023-03-12T02:36:25;6.80;;;4.30;;
6388;SDS011;3227;42.654;23.360;2023-03-12T02:38:54;8.33;;;4.20;;
6388;SDS011;3227;42.654;23.360;2023-03-12T02:41:22;6.33;;;4.10;;
6388;SDS011;3227;42.654;23.360;2023-03-12T02:43:55;6.40;;;4.13;;
6388;SDS011;3227;42.654;23.360;2023-03-12T02:46:26;5.67;;;3.47;;
6388;SDS011;3227;42.654;23.360;2023-03-12T02:48:54;6.53;;;3.90;;
6388;SDS011;3227;42.654;23.360;2023-03-12T02:51:21;8.73;;;4.07;;
6388;SDS011;3227;42.654;23.360;2023-03-12T02:53:48;7.70;;;4.00;;
6388;SDS011;3227;42.654;23.360;2023-03-12T02:56:19;6.23;;;4.10;;
6388;SDS011;3227;42.654;23.360;2023-03-12T02:58:47;6.20;;;4.00;;
6388;SDS011;3227;42.654;23.360;2023-03-12T03:01:15;6.50;;;3.90;;
6388;SDS011;3227;42.654;23.360;2023-03-12T03:03:43;6.50;;;4.03;;
6388;SDS011;3227;42.654;23.360;2023-03-12T03:06:10;7.30;;;4.23;;
6388;SDS011;3227;42.654;23.360;2023-03-12T03:08:42;6.80;;;4.10;;
6388;SDS011;3227;42.654;23.360;2023-03-12T03:11:09;8.67;;;4.30;;
6388;SDS011;3227;42.654;23.360;2023-03-12T03:13:36;6.20;;;4.00;;
6388;SDS011;3227;42.654;23.360;2023-03-12T03:16:03;10.60;;;4.07;;
6388;SDS011;3227;42.654;23.360;2023-03-12T03:18:32;6.20;;;3.80;;
6388;SDS011;3227;42.654;23.360;2023-03-12T03:20:59;7.50;;;3.93;;
6388;SDS011;3227;42.654;23.360;2023-03-12T03:23:28;9.47;;;3.83;;
6388;SDS011;3227;42.654;23.360;2023-03-12T03:25:55;6.93;;;3.77;;
6388;SDS011;3227;42.654;23.360;2023-03-12T03:28:23;5.80;;;3.63;;
6388;SDS011;3227;42.654;23.360;2023-03-12T03:30:51;8.50;;;3.57;;
6388;SDS011;3227;42.654;23.360;2023-03-12T03:33:18;9.27;;;3.30;;
6388;SDS011;3227;42.654;23.360;2023-03-12T03:35:47;4.97;;;3.10;;
6388;SDS011;3227;42.654;23.360;2023-03-12T03:38:14;4.97;;;3.10;;
6388;SDS011;3227;42.654;23.360;2023-03-12T03:40:41;5.97;;;3.43;;
6388;SDS011;3227;42.654;23.360;2023-03-12T03:43:08;5.13;;;3.17;;
6388;SDS011;3227;42.654;23.360;2023-03-12T03:45:35;7.43;;;3.40;;
6388;SDS011;3227;42.654;23.360;2023-03-12T03:48:02;5.83;;;3.40;;
6388;SDS011;3227;42.654;23.360;2023-03-12T03:50:29;7.63;;;3.40;;
6388;SDS011;3227;42.654;23.360;2023-03-12T03:52:57;5.53;;;3.30;;
6388;SDS011;3227;42.654;23.360;2023-03-12T03:55:24;8.30;;;2.90;;
6388;SDS011;3227;42.654;23.360;2023-03-12T03:57:51;5.43;;;3.27;;
6388;SDS011;3227;42.654;23.360;2023-03-12T04:00:18;5.57;;;3.40;;
6388;SDS011;3227;42.654;23.360;2023-03-12T04:02:46;6.33;;;3.17;;
6388;SDS011;3227;42.654;23.360;2023-03-12T04:05:13;5.50;;;3.20;;
6388;SDS011;3227;42.654;23.360;2023-03-12T04:07:40;8.87;;;3.30;;
6388;SDS011;3227;42.654;23.360;2023-03-12T04:10:09;5.20;;;3.13;;
6388;SDS011;3227;42.654;23.360;2023-03-12T04:12:36;8.73;;;3.27;;
6388;SDS011;3227;42.654;23.360;2023-03-12T04:15:03;5.50;;;3.00;;
6388;SDS011;3227;42.654;23.360;2023-03-12T04:17:36;5.33;;;3.00;;
6388;SDS011;3227;42.654;23.360;2023-03-12T04:20:03;5.90;;;3.17;;
6388;SDS011;3227;42.654;23.360;2023-03-12T04:22:31;5.23;;;3.07;;
6388;SDS011;3227;42.654;23.360;2023-03-12T04:24:58;9.83;;;3.00;;
6388;SDS011;3227;42.654;23.360;2023-03-12T04:27:27;6.07;;;3.00;;
6388;SDS011;3227;42.654;23.360;2023-03-12T04:29:53;4.47;;;2.87;;
6388;SDS011;3227;42.654;23.360;2023-03-12T04:32:20;4.20;;;2.80;;
6388;SDS011;3227;42.654;23.360;2023-03-12T04:34:47;4.67;;;2.73;;
6388;SDS011;3227;42.654;23.360;2023-03-12T04:37:14;6.57;;;3.20;;
6388;SDS011;3227;42.654;23.360;2023-03-12T04:39:40;7.87;;;2.83;;
6388;SDS011;3227;42.654;23.360;2023-03-12T04:42:09;6.20;;;3.00;;
6388;SDS011;3227;42.654;23.360;2023-03-12T04:44:38;7.27;;;3.10;;
6388;SDS011;3227;42.654;23.360;2023-03-12T04:47:05;6.23;;;2.80;;
6388;SDS011;3227;42.654;23.360;2023-03-12T04:49:37;5.07;;;3.00;;
6388;SDS011;3227;42.654;23.360;2023-03-12T04:52:04;5.30;;;2.80;;
6388;SDS011;3227;42.654;23.360;2023-03-12T04:54:32;8.40;;;2.80;;
6388;SDS011;3227;42.654;23.360;2023-03-12T04:56:58;6.03;;;3.07;;
6388;SDS011;3227;42.654;23.360;2023-03-12T04:59:25;5.77;;;3.30;;
6388;SDS011;3227;42.654;23.360;2023-03-12T05:01:54;5.17;;;2.77;;
6388;SDS011;3227;42.654;23.360;2023-03-12T05:04:20;5.17;;;2.80;;
6388;SDS011;3227;42.654;23.360;2023-03-12T05:06:47;5.20;;;2.93;;
6388;SDS011;3227;42.654;23.360;2023-03-12T05:09:14;5.87;;;3.10;;
6388;SDS011;3227;42.654;23.360;2023-03-12T05:11:41;5.53;;;3.10;;
6388;SDS011;3227;42.654;23.360;2023-03-12T05:14:08;4.27;;;2.70;;
6388;SDS011;3227;42.654;23.360;2023-03-12T05:16:36;6.20;;;3.17;;
6388;SDS011;3227;42.654;23.360;2023-03-12T05:19:05;4.40;;;2.77;;
6388;SDS011;3227;42.654;23.360;2023-03-12T05:21:32;5.27;;;2.50;;
6388;SDS011;3227;42.654;23.360;2023-03-12T05:23:59;5.40;;;2.70;;
6388;SDS011;3227;42.654;23.360;2023-03-12T05:26:26;6.13;;;2.40;;
6388;SDS011;3227;42.654;23.360;2023-03-12T05:28:57;7.93;;;2.90;;
6388;SDS011;3227;42.654;23.360;2023-03-12T05:31:25;4.77;;;2.57;;
6388;SDS011;3227;42.654;23.360;2023-03-12T05:33:52;4.50;;;2.60;;
6388;SDS011;3227;42.654;23.360;2023-03-12T05:36:20;7.30;;;2.97;;
6388;SDS011;3227;42.654;23.360;2023-03-12T05:38:47;6.40;;;2.80;;
6388;SDS011;3227;42.654;23.360;2023-03-12T05:41:16;5.93;;;2.83;;
6388;SDS011;3227;42.654;23.360;2023-03-12T05:43:44;4.57;;;2.80;;
6388;SDS011;3227;42.654;23.360;2023-03-12T05:46:11;7.30;;;2.93;;
6388;SDS011;3227;42.654;23.360;2023-03-12T05:48:38;5.83;;;3.03;;
6388;SDS011;3227;42.654;23.360;2023-03-12T05:51:05;4.33;;;2.60;;
6388;SDS011;3227;42.654;23.360;2023-03-12T05:53:33;5.77;;;3.00;;
6388;SDS011;3227;42.654;23.360;2023-03-12T05:56:01;5.83;;;2.50;;
6388;SDS011;3227;42.654;23.360;2023-03-12T05:58:29;5.20;;;2.60;;
6388;SDS011;3227;42.654;23.360;2023-03-12T06:00:56;4.27;;;2.50;;
6388;SDS011;3227;42.654;23.360;2023-03-12T06:03:23;6.93;;;2.80;;
6388;SDS011;3227;42.654;23.360;2023-03-12T06:05:50;7.00;;;2.90;;
6388;SDS011;3227;42.654;23.360;2023-03-12T06:08:24;7.30;;;3.10;;
6388;SDS011;3227;42.654;23.360;2023-03-12T06:10:52;12.13;;;3.30;;
6388;SDS011;3227;42.654;23.360;2023-03-12T06:13:19;5.77;;;3.30;;
6388;SDS011;3227;42.654;23.360;2023-03-12T06:15:47;6.30;;;3.03;;
6388;SDS011;3227;42.654;23.360;2023-03-12T06:18:14;4.90;;;2.87;;
6388;SDS011;3227;42.654;23.360;2023-03-12T06:20:41;5.43;;;3.10;;
6388;SDS011;3227;42.654;23.360;2023-03-12T06:23:08;6.87;;;2.97;;
6388;SDS011;3227;42.654;23.360;2023-03-12T06:25:35;5.03;;;3.10;;
6388;SDS011;3227;42.654;23.360;2023-03-12T06:28:03;7.90;;;3.23;;
6388;SDS011;3227;42.654;23.360;2023-03-12T06:30:30;5.67;;;2.87;;
6388;SDS011;3227;42.654;23.360;2023-03-12T06:32:57;5.33;;;3.00;;
6388;SDS011;3227;42.654;23.360;2023-03-12T06:35:24;5.47;;;3.23;;
6388;SDS011;3227;42.654;23.360;2023-03-12T06:37:56;5.37;;;3.10;;
6388;SDS011;3227;42.654;23.360;2023-03-12T06:40:23;7.03;;;2.90;;
6388;SDS011;3227;42.654;23.360;2023-03-12T06:42:49;6.57;;;3.07;;
6388;SDS011;3227;42.654;23.360;2023-03-12T06:45:18;5.57;;;3.10;;
6388;SDS011;3227;42.654;23.360;2023-03-12T06:47:50;7.57;;;3.53;;
6388;SDS011;3227;42.654;23.360;2023-03-12T06:50:17;5.43;;;3.47;;
6388;SDS011;3227;42.654;23.360;2023-03-12T06:52:44;5.80;;;3.10;;
6388;SDS011;3227;42.654;23.360;2023-03-12T06:55:11;5.97;;;3.13;;
6388;SDS011;3227;42.654;23.360;2023-03-12T06:57:37;6.87;;;3.67;;
6388;SDS011;3227;42.654;23.360;2023-03-12T07:00:05;6.40;;;3.50;;
6388;SDS011;3227;42.654;23.360;2023-03-12T07:02:34;7.43;;;3.23;;
6388;SDS011;3227;42.654;23.360;2023-03-12T07:05:01;8.07;;;3.60;;
6388;SDS011;3227;42.654;23.360;2023-03-12T07:07:28;5.70;;;3.20;;
6388;SDS011;3227;42.654;23.360;2023-03-12T07:09:55;7.30;;;3.30;;
6388;SDS011;3227;42.654;23.360;2023-03-12T07:12:22;6.93;;;3.40;;
6388;SDS011;3227;42.654;23.360;2023-03-12T07:14:49;6.57;;;3.20;;
6388;SDS011;3227;42.654;23.360;2023-03-12T07:17:15;6.07;;;3.40;;
6388;SDS011;3227;42.654;23.360;2023-03-12T07:19:44;4.93;;;2.87;;
6388;SDS011;3227;42.654;23.360;2023-03-12T07:22:10;10.93;;;3.97;;
6388;SDS011;3227;42.654;23.360;2023-03-12T07:24:37;8.00;;;3.00;;
6388;SDS011;3227;42.654;23.360;2023-03-12T07:27:04;7.33;;;3.20;;
6388;SDS011;3227;42.654;23.360;2023-03-12T07:29:31;7.37;;;3.30;;
6388;SDS011;3227;42.654;23.360;2023-03-12T07:31:58;6.13;;;3.23;;
6388;SDS011;3227;42.654;23.360;2023-03-12T07:34:25;5.50;;;3.10;;
6388;SDS011;3227;42.654;23.360;2023-03-12T07:36:56;5.03;;;3.10;;
6388;SDS011;3227;42.654;23.360;2023-03-12T07:39:26;5.20;;;2.87;;
6388;SDS011;3227;42.654;23.360;2023-03-12T07:42:02;4.97;;;2.90;;
6388;SDS011;3227;42.654;23.360;2023-03-12T07:44:29;5.30;;;3.40;;
6388;SDS011;3227;42.654;23.360;2023-03-12T07:46:56;5.27;;;2.90;;
6388;SDS011;3227;42.654;23.360;2023-03-12T07:49:23;6.60;;;3.00;;
6388;SDS011;3227;42.654;23.360;2023-03-12T07:51:50;6.23;;;2.90;;
6388;SDS011;3227;42.654;23.360;2023-03-12T07:54:18;5.13;;;3.00;;
6388;SDS011;3227;42.654;23.360;2023-03-12T07:56:49;4.17;;;2.80;;
6388;SDS011;3227;42.654;23.360;2023-03-12T07:59:16;4.90;;;2.87;;
6388;SDS011;3227;42.654;23.360;2023-03-12T08:01:49;8.50;;;3.37;;
6388;SDS011;3227;42.654;23.360;2023-03-12T08:04:16;9.57;;;2.93;;
6388;SDS011;3227;42.654;23.360;2023-03-12T08:06:45;6.97;;;3.30;;
6388;SDS011;3227;42.654;23.360;2023-03-12T08:12:16;5.03;;;2.90;;
6388;SDS011;3227;42.654;23.360;2023-03-12T08:14:44;6.87;;;3.13;;
6388;SDS011;3227;42.654;23.360;2023-03-12T08:17:11;5.60;;;3.17;;
6388;SDS011;3227;42.654;23.360;2023-03-12T08:19:38;11.03;;;3.13;;
6388;SDS011;3227;42.654;23.360;2023-03-12T08:22:06;6.53;;;2.90;;
6388;SDS011;3227;42.654;23.360;2023-03-12T08:24:33;7.07;;;3.00;;
6388;SDS011;3227;42.654;23.360;2023-03-12T08:27:01;6.97;;;3.40;;
6388;SDS011;3227;42.654;23.360;2023-03-12T08:29:31;5.30;;;3.20;;
6388;SDS011;3227;42.654;23.360;2023-03-12T08:31:58;5.33;;;2.83;;
6388;SDS011;3227;42.654;23.360;2023-03-12T08:34:26;5.83;;;3.40;;
6388;SDS011;3227;42.654;23.360;2023-03-12T08:36:52;6.13;;;3.43;;
6388;SDS011;3227;42.654;23.360;2023-03-12T08:39:20;6.70;;;3.40;;
6388;SDS011;3227;42.654;23.360;2023-03-12T08:41:47;8.03;;;3.00;;
6388;SDS011;3227;42.654;23.360;2023-03-12T08:44:17;4.47;;;2.83;;
6388;SDS011;3227;42.654;23.360;2023-03-12T08:46:43;4.37;;;2.73;;
6388;SDS011;3227;42.654;23.360;2023-03-12T08:49:11;5.73;;;2.80;;
6388;SDS011;3227;42.654;23.360;2023-03-12T08:51:38;8.07;;;3.10;;
6388;SDS011;3227;42.654;23.360;2023-03-12T08:54:05;6.17;;;2.87;;
6388;SDS011;3227;42.654;23.360;2023-03-12T08:56:33;5.27;;;3.00;;
6388;SDS011;3227;42.654;23.360;2023-03-12T08:59:05;6.10;;;3.30;;
6388;SDS011;3227;42.654;23.360;2023-03-12T09:01:34;5.80;;;2.95;;
6388;SDS011;3227;42.654;23.360;2023-03-12T09:04:01;5.20;;;2.97;;
6388;SDS011;3227;42.654;23.360;2023-03-12T09:06:28;6.33;;;2.97;;
6388;SDS011;3227;42.654;23.360;2023-03-12T09:08:55;6.40;;;3.33;;
6388;SDS011;3227;42.654;23.360;2023-03-12T09:11:22;7.23;;;3.00;;
6388;SDS011;3227;42.654;23.360;2023-03-12T09:13:48;6.75;;;3.50;;
6388;SDS011;3227;42.654;23.360;2023-03-12T09:16:15;5.77;;;3.37;;
6388;SDS011;3227;42.654;23.360;2023-03-12T09:18:43;5.97;;;3.27;;
6388;SDS011;3227;42.654;23.360;2023-03-12T09:21:10;5.73;;;3.27;;
6388;SDS011;3227;42.654;23.360;2023-03-12T09:23:37;7.47;;;3.28;;
6388;SDS011;3227;42.654;23.360;2023-03-12T09:26:07;6.95;;;3.72;;
6388;SDS011;3227;42.654;23.360;2023-03-12T09:28:34;6.72;;;3.45;;
6388;SDS011;3227;42.654;23.360;2023-03-12T09:31:01;6.30;;;3.47;;
6388;SDS011;3227;42.654;23.360;2023-03-12T09:33:29;5.93;;;3.70;;
6388;SDS011;3227;42.654;23.360;2023-03-12T09:35:58;8.67;;;3.80;;
6388;SDS011;3227;42.654;23.360;2023-03-12T09:38:26;7.17;;;3.27;;
6388;SDS011;3227;42.654;23.360;2023-03-12T09:40:55;8.33;;;3.40;;
6388;SDS011;3227;42.654;23.360;2023-03-12T09:43:23;9.03;;;3.53;;
6388;SDS011;3227;42.654;23.360;2023-03-12T09:45:54;5.30;;;3.20;;
6388;SDS011;3227;42.654;23.360;2023-03-12T09:48:24;5.97;;;3.40;;
6388;SDS011;3227;42.654;23.360;2023-03-12T09:50:59;6.40;;;3.40;;
6388;SDS011;3227;42.654;23.360;2023-03-12T09:53:29;7.05;;;3.30;;
6388;SDS011;3227;42.654;23.360;2023-03-12T09:56:01;5.07;;;3.00;;
6388;SDS011;3227;42.654;23.360;2023-03-12T09:58:33;5.77;;;3.20;;
6388;SDS011;3227;42.654;23.360;2023-03-12T10:01:08;4.47;;;2.93;;
6388;SDS011;3227;42.654;23.360;2023-03-12T10:03:55;14.73;;;6.67;;
6388;SDS011;3227;42.654;23.360;2023-03-12T10:06:50;6.07;;;3.37;;
6388;SDS011;3227;42.654;23.360;2023-03-12T10:09:31;5.93;;;3.57;;
6388;SDS011;3227;42.654;23.360;2023-03-12T10:12:07;7.27;;;3.60;;
6388;SDS011;3227;42.654;23.360;2023-03-12T10:14:46;6.30;;;3.37;;
6388;SDS011;3227;42.654;23.360;2023-03-12T10:17:28;6.77;;;3.20;;
6388;SDS011;3227;42.654;23.360;2023-03-12T10:20:14;5.20;;;3.07;;
6388;SDS011;3227;42.654;23.360;2023-03-12T10:22:54;6.27;;;3.27;;
6388;SDS011;3227;42.654;23.360;2023-03-12T10:25:30;4.83;;;3.10;;
6388;SDS011;3227;42.654;23.360;2023-03-12T10:28:09;6.60;;;3.60;;
6388;SDS011;3227;42.654;23.360;2023-03-12T10:30:42;7.30;;;3.23;;
6388;SDS011;3227;42.654;23.360;2023-03-12T10:33:14;5.10;;;3.20;;
6388;SDS011;3227;42.654;23.360;2023-03-12T10:35:42;6.60;;;3.50;;
6388;SDS011;3227;42.654;23.360;2023-03-12T10:38:12;8.53;;;3.57;;
6388;SDS011;3227;42.654;23.360;2023-03-12T10:40:42;6.18;;;3.30;;
6388;SDS011;3227;42.654;23.360;2023-03-12T10:43:09;4.93;;;2.93;;
6388;SDS011;3227;42.654;23.360;2023-03-12T10:45:37;5.07;;;2.80;;
6388;SDS011;3227;42.654;23.360;2023-03-12T10:48:09;4.97;;;3.07;;
6388;SDS011;3227;42.654;23.360;2023-03-12T10:50:43;6.63;;;3.07;;
6388;SDS011;3227;42.654;23.360;2023-03-12T10:53:27;6.20;;;3.17;;
6388;SDS011;3227;42.654;23.360;2023-03-12T10:55:57;5.93;;;3.00;;
6388;SDS011;3227;42.654;23.360;2023-03-12T10:58:37;5.63;;;3.00;;
6388;SDS011;3227;42.654;23.360;2023-03-12T11:01:05;5.13;;;3.03;;
6388;SDS011;3227;42.654;23.360;2023-03-12T11:03:44;5.83;;;2.90;;
6388;SDS011;3227;42.654;23.360;2023-03-12T11:06:18;6.80;;;3.10;;
6388;SDS011;3227;42.654;23.360;2023-03-12T11:09:02;7.07;;;3.40;;
6388;SDS011;3227;42.654;23.360;2023-03-12T11:11:31;6.63;;;3.00;;
6388;SDS011;3227;42.654;23.360;2023-03-12T11:14:07;6.97;;;3.30;;
6388;SDS011;3227;42.654;23.360;2023-03-12T11:16:40;5.70;;;2.40;;
6388;SDS011;3227;42.654;23.360;2023-03-12T11:19:09;4.80;;;2.80;;
6388;SDS011;3227;42.654;23.360;2023-03-12T11:21:38;4.82;;;2.83;;
6388;SDS011;3227;42.654;23.360;2023-03-12T11:24:20;4.47;;;2.57;;
6388;SDS011;3227;42.654;23.360;2023-03-12T11:26:48;6.18;;;2.80;;
6388;SDS011;3227;42.654;23.360;2023-03-12T11:29:20;5.00;;;2.80;;
6388;SDS011;3227;42.654;23.360;2023-03-12T11:31:54;7.83;;;2.87;;
6388;SDS011;3227;42.654;23.360;2023-03-12T11:34:27;4.80;;;2.87;;
6388;SDS011;3227;42.654;23.360;2023-03-12T11:36:58;7.00;;;3.20;;
6388;SDS011;3227;42.654;23.360;2023-03-12T11:39:37;5.53;;;3.13;;
6388;SDS011;3227;42.654;23.360;2023-03-12T11:42:15;4.40;;;2.83;;
6388;SDS011;3227;42.654;23.360;2023-03-12T11:44:53;4.70;;;2.60;;
6388;SDS011;3227;42.654;23.360;2023-03-12T11:47:33;5.33;;;2.60;;
6388;SDS011;3227;42.654;23.360;2023-03-12T11:50:13;4.77;;;2.73;;
6388;SDS011;3227;42.654;23.360;2023-03-12T11:52:52;4.43;;;2.67;;
6388;SDS011;3227;42.654;23.360;2023-03-12T11:55:38;7.03;;;2.90;;
6388;SDS011;3227;42.654;23.360;2023-03-12T11:58:18;8.50;;;2.83;;
6388;SDS011;3227;42.654;23.360;2023-03-12T12:00:52;6.60;;;3.42;;
6388;SDS011;3227;42.654;23.360;2023-03-12T12:03:28;5.20;;;2.88;;
6388;SDS011;3227;42.654;23.360;2023-03-12T12:06:15;4.65;;;2.83;;
6388;SDS011;3227;42.654;23.360;2023-03-12T12:08:59;4.60;;;2.60;;
6388;SDS011;3227;42.654;23.360;2023-03-12T12:11:42;5.87;;;2.83;;
6388;SDS011;3227;42.654;23.360;2023-03-12T12:14:19;4.93;;;2.83;;
6388;SDS011;3227;42.654;23.360;2023-03-12T12:17:02;5.30;;;2.70;;
6388;SDS011;3227;42.654;23.360;2023-03-12T12:19:44;3.97;;;2.60;;
6388;SDS011;3227;42.654;23.360;2023-03-12T12:22:39;4.47;;;2.70;;
6388;SDS011;3227;42.654;23.360;2023-03-12T12:31:33;4.03;;;2.57;;
6388;SDS011;3227;42.654;23.360;2023-03-12T12:37:20;5.13;;;3.00;;
6388;SDS011;3227;42.654;23.360;2023-03-12T12:39:51;5.80;;;3.03;;
6388;SDS011;3227;42.654;23.360;2023-03-12T12:42:26;5.07;;;2.93;;
6388;SDS011;3227;42.654;23.360;2023-03-12T12:44:57;4.63;;;2.70;;
6388;SDS011;3227;42.654;23.360;2023-03-12T12:47:33;6.27;;;3.33;;
6388;SDS011;3227;42.654;23.360;2023-03-12T12:50:13;7.03;;;3.20;;
6388;SDS011;3227;42.654;23.360;2023-03-12T12:52:45;4.90;;;3.00;;
6388;SDS011;3227;42.654;23.360;2023-03-12T12:55:19;5.53;;;2.80;;
6388;SDS011;3227;42.654;23.360;2023-03-12T12:57:51;5.90;;;3.10;;
6388;SDS011;3227;42.654;23.360;2023-03-12T13:00:24;5.60;;;2.87;;
6388;SDS011;3227;42.654;23.360;2023-03-12T13:03:04;6.43;;;2.90;;
6388;SDS011;3227;42.654;23.360;2023-03-12T13:05:39;5.57;;;3.03;;
6388;SDS011;3227;42.654;23.360;2023-03-12T13:08:30;5.20;;;3.13;;
6388;SDS011;3227;42.654;23.360;2023-03-12T13:10:58;6.68;;;3.05;;
6388;SDS011;3227;42.654;23.360;2023-03-12T13:13:30;4.60;;;2.77;;
6388;SDS011;3227;42.654;23.360;2023-03-12T13:18:58;5.10;;;3.10;;
6388;SDS011;3227;42.654;23.360;2023-03-12T13:21:28;5.60;;;3.00;;
6388;SDS011;3227;42.654;23.360;2023-03-12T13:26:50;6.22;;;3.10;;
6388;SDS011;3227;42.654;23.360;2023-03-12T13:29:22;5.87;;;2.97;;
6388;SDS011;3227;42.654;23.360;2023-03-12T13:32:02;6.43;;;3.40;;
6388;SDS011;3227;42.654;23.360;2023-03-12T13:49:14;5.80;;;3.20;;
6388;SDS011;3227;42.654;23.360;2023-03-12T13:51:45;6.30;;;3.40;;
6388;SDS011;3227;42.654;23.360;2023-03-12T13:54:21;6.40;;;3.23;;
6388;SDS011;3227;42.654;23.360;2023-03-12T13:56:54;6.15;;;3.45;;
6388;SDS011;3227;42.654;23.360;2023-03-12T13:59:24;6.90;;;3.20;;
6388;SDS011;3227;42.654;23.360;2023-03-12T14:01:53;8.05;;;3.47;;
6388;SDS011;3227;42.654;23.360;2023-03-12T14:04:26;11.13;;;3.60;;
6388;SDS011;3227;42.654;23.360;2023-03-12T14:07:06;9.23;;;4.10;;
6388;SDS011;3227;42.654;23.360;2023-03-12T14:09:50;9.63;;;4.00;;
6388;SDS011;3227;42.654;23.360;2023-03-12T14:12:29;6.03;;;3.40;;
6388;SDS011;3227;42.654;23.360;2023-03-12T14:15:06;7.05;;;3.80;;
6388;SDS011;3227;42.654;23.360;2023-03-12T14:17:43;5.72;;;3.17;;
6388;SDS011;3227;42.654;23.360;2023-03-12T14:20:11;6.10;;;3.10;;
6388;SDS011;3227;42.654;23.360;2023-03-12T14:22:52;6.30;;;3.20;;
6388;SDS011;3227;42.654;23.360;2023-03-12T14:25:30;6.37;;;3.00;;
6388;SDS011;3227;42.654;23.360;2023-03-12T14:27:59;6.88;;;3.75;;
6388;SDS011;3227;42.654;23.360;2023-03-12T14:30:32;7.00;;;3.70;;
6388;SDS011;3227;42.654;23.360;2023-03-12T14:33:08;5.07;;;2.87;;
6388;SDS011;3227;42.654;23.360;2023-03-12T14:35:39;7.00;;;3.50;;
6388;SDS011;3227;42.654;23.360;2023-03-12T14:38:12;6.30;;;3.30;;
6388;SDS011;3227;42.654;23.360;2023-03-12T14:40:44;6.30;;;3.43;;
6388;SDS011;3227;42.654;23.360;2023-03-12T14:43:20;7.80;;;3.63;;
6388;SDS011;3227;42.654;23.360;2023-03-12T14:45:48;6.32;;;3.40;;
6388;SDS011;3227;42.654;23.360;2023-03-12T14:48:19;6.23;;;3.30;;
6388;SDS011;3227;42.654;23.360;2023-03-12T14:50:47;6.35;;;3.42;;
6388;SDS011;3227;42.654;23.360;2023-03-12T14:53:19;6.22;;;3.20;;
6388;SDS011;3227;42.654;23.360;2023-03-12T14:56:05;5.60;;;3.10;;
6388;SDS011;3227;42.654;23.360;2023-03-12T14:58:34;5.55;;;3.08;;
6388;SDS011;3227;42.654;23.360;2023-03-12T15:01:10;6.37;;;3.17;;
6388;SDS011;3227;42.654;23.360;2023-03-12T15:03:39;6.85;;;3.00;;
6388;SDS011;3227;42.654;23.360;2023-03-12T15:06:13;5.10;;;3.20;;
6388;SDS011;3227;42.654;23.360;2023-03-12T15:08:44;8.93;;;3.47;;
6388;SDS011;3227;42.654;23.360;2023-03-12T15:11:13;7.00;;;3.10;;
6388;SDS011;3227;42.654;23.360;2023-03-12T15:13:47;6.95;;;3.65;;
6388;SDS011;3227;42.654;23.360;2023-03-12T15:16:15;6.90;;;3.38;;
6388;SDS011;3227;42.654;23.360;2023-03-12T15:18:42;7.20;;;3.67;;
6388;SDS011;3227;42.654;23.360;2023-03-12T15:21:11;5.47;;;3.00;;
6388;SDS011;3227;42.654;23.360;2023-03-12T15:23:38;8.67;;;3.43;;
6388;SDS011;3227;42.654;23.360;2023-03-12T15:26:12;5.57;;;3.03;;
6388;SDS011;3227;42.654;23.360;2023-03-12T15:28:44;5.80;;;3.10;;
6388;SDS011;3227;42.654;23.360;2023-03-12T15:31:20;5.97;;;3.00;;
6388;SDS011;3227;42.654;23.360;2023-03-12T15:33:58;7.17;;;3.30;;
6388;SDS011;3227;42.654;23.360;2023-03-12T15:36:27;6.05;;;3.08;;
6388;SDS011;3227;42.654;23.360;2023-03-12T15:38:56;5.95;;;3.30;;
6388;SDS011;3227;42.654;23.360;2023-03-12T15:41:27;7.83;;;3.40;;
6388;SDS011;3227;42.654;23.360;2023-03-12T15:44:02;5.27;;;3.13;;
6388;SDS011;3227;42.654;23.360;2023-03-12T15:46:29;6.63;;;3.73;;
6388;SDS011;3227;42.654;23.360;2023-03-12T15:48:56;9.43;;;3.13;;
6388;SDS011;3227;42.654;23.360;2023-03-12T15:51:26;9.33;;;3.10;;